createdAt,value
2022-12-01T00:01:16.146Z,16.62
2022-12-01T00:03:43.191Z,16.55
2022-12-01T00:06:15.933Z,16.52
2022-12-01T00:09:02.184Z,16.62
2022-12-01T00:11:28.732Z,16.55
2022-12-01T00:13:55.329Z,16.60
2022-12-01T00:16:22.190Z,16.60
2022-12-01T00:18:53.437Z,16.58
2022-12-01T00:21:23.698Z,16.59
2022-12-01T00:23:53.130Z,16.59
2022-12-01T00:26:21.933Z,16.59
2022-12-01T00:28:50.357Z,16.57
2022-12-01T00:31:17.495Z,16.57
2022-12-01T00:33:44.044Z,16.58
2022-12-01T00:36:10.725Z,16.56
2022-12-01T00:38:37.859Z,16.52
2022-12-01T00:41:05.221Z,16.51
2022-12-01T00:43:32.467Z,16.56
2022-12-01T00:45:59.298Z,16.55
2022-12-01T00:48:25.906Z,16.55
2022-12-01T00:50:54.112Z,16.55
2022-12-01T00:53:21.035Z,16.54
2022-12-01T00:55:48.101Z,16.52
2022-12-01T00:58:14.944Z,16.53
2022-12-01T01:00:42.894Z,16.52
2022-12-01T01:03:10.854Z,16.49
2022-12-01T01:05:42.211Z,16.48
2022-12-01T01:08:14.860Z,16.46
2022-12-01T01:10:44.089Z,16.47
2022-12-01T01:13:12.483Z,16.47
2022-12-01T01:15:40.206Z,16.49
2022-12-01T01:18:09.555Z,16.41
2022-12-01T01:20:36.157Z,16.47
2022-12-01T01:23:03.595Z,16.46
2022-12-01T01:25:32.260Z,16.42
2022-12-01T01:27:59.308Z,16.47
2022-12-01T01:30:26.305Z,16.43
2022-12-01T01:32:52.839Z,16.46
2022-12-01T01:35:19.354Z,16.45
2022-12-01T01:37:46.356Z,16.45
2022-12-01T01:40:12.926Z,16.42
2022-12-01T01:42:39.496Z,16.45
2022-12-01T01:45:19.527Z,16.43
2022-12-01T01:47:46.133Z,16.43
2022-12-01T01:50:17.045Z,16.43
2022-12-01T01:52:48.745Z,16.43
2022-12-01T01:55:16.368Z,16.40
2022-12-01T01:57:44.761Z,16.39
2022-12-01T02:00:14.685Z,16.39
2022-12-01T02:02:46.015Z,16.40
2022-12-01T02:05:24.107Z,16.39
2022-12-01T02:07:53.896Z,16.34
2022-12-01T02:10:24.527Z,16.37
2022-12-01T02:13:08.747Z,16.39
2022-12-01T02:15:44.803Z,16.37
2022-12-01T02:18:43.905Z,16.35
2022-12-01T02:21:22.638Z,16.36
2022-12-01T02:24:10.844Z,16.34
2022-12-01T02:27:21.664Z,16.34
2022-12-01T02:30:16.694Z,16.31
2022-12-01T02:32:48.900Z,16.32
2022-12-01T02:35:28.422Z,16.31
2022-12-01T02:38:14.286Z,16.32
2022-12-01T02:40:43.290Z,16.29
2022-12-01T02:43:14.121Z,16.31
2022-12-01T02:45:54.242Z,16.30
2022-12-01T02:48:33.808Z,16.30
2022-12-01T02:51:07.886Z,16.30
2022-12-01T02:53:35.242Z,16.29
2022-12-01T02:56:07.139Z,16.27
2022-12-01T02:58:33.689Z,16.29
2022-12-01T03:01:18.575Z,16.30
2022-12-01T03:04:01.963Z,16.25
2022-12-01T03:06:44.156Z,16.26
2022-12-01T03:09:38.538Z,16.29
2022-12-01T03:12:10.849Z,16.28
2022-12-01T03:14:45.860Z,16.28
2022-12-01T03:17:17.354Z,16.26
2022-12-01T03:19:50.859Z,16.28
2022-12-01T03:22:25.802Z,16.27
2022-12-01T03:24:54.654Z,16.22
2022-12-01T03:27:25.948Z,16.26
2022-12-01T03:29:56.368Z,16.24
2022-12-01T03:32:31.988Z,16.27
2022-12-01T03:35:16.173Z,16.25
2022-12-01T03:37:53.526Z,16.26
2022-12-01T03:40:25.573Z,16.24
2022-12-01T03:43:04.313Z,16.21
2022-12-01T03:45:34.102Z,16.24
2022-12-01T03:48:01.048Z,16.23
2022-12-01T03:50:48.448Z,16.23
2022-12-01T03:53:21.596Z,16.25
2022-12-01T03:55:56.685Z,16.21
2022-12-01T03:58:28.792Z,16.22
2022-12-01T04:00:57.611Z,16.23
2022-12-01T04:03:26.675Z,16.22
2022-12-01T04:05:54.244Z,16.23
2022-12-01T04:08:21.230Z,16.22
2022-12-01T04:10:48.228Z,16.23
2022-12-01T04:13:23.270Z,16.20
2022-12-01T04:15:52.027Z,16.20
2022-12-01T04:18:20.228Z,16.22
2022-12-01T04:20:48.594Z,16.13
2022-12-01T04:23:35.568Z,16.22
2022-12-01T04:26:04.365Z,16.16
2022-12-01T04:28:31.732Z,16.19
2022-12-01T04:30:58.387Z,16.19
2022-12-01T04:33:24.986Z,16.19
2022-12-01T04:36:00.117Z,16.18
2022-12-01T04:38:30.547Z,16.18
2022-12-01T04:40:58.112Z,16.18
2022-12-01T04:43:24.819Z,16.19
2022-12-01T04:45:51.880Z,16.17
2022-12-01T04:48:18.519Z,16.18
2022-12-01T04:50:45.017Z,16.17
2022-12-01T04:53:12.040Z,16.17
2022-12-01T04:55:39.308Z,16.06
2022-12-01T04:58:06.276Z,16.10
2022-12-01T05:00:33.377Z,16.16
2022-12-01T05:03:01.017Z,16.11
2022-12-01T05:05:28.177Z,16.16
2022-12-01T05:07:54.831Z,16.16
2022-12-01T05:10:22.278Z,16.09
2022-12-01T05:12:49.425Z,16.07
2022-12-01T05:15:16.702Z,16.13
2022-12-01T05:17:43.963Z,16.14
2022-12-01T05:20:38.369Z,16.13
2022-12-01T05:23:06.562Z,16.12
2022-12-01T05:25:34.025Z,16.11
2022-12-01T05:28:01.036Z,16.10
2022-12-01T05:30:28.986Z,16.11
2022-12-01T05:32:55.706Z,16.00
2022-12-01T05:35:22.706Z,16.09
2022-12-01T05:37:49.208Z,16.07
2022-12-01T05:40:15.923Z,16.07
2022-12-01T05:42:42.967Z,16.09
2022-12-01T05:45:10.071Z,16.08
2022-12-01T05:47:37.118Z,16.06
2022-12-01T05:50:06.022Z,16.06
2022-12-01T05:52:36.832Z,16.05
2022-12-01T05:55:04.718Z,16.07
2022-12-01T05:57:32.521Z,16.07
2022-12-01T05:59:59.268Z,16.07
2022-12-01T06:02:29.046Z,16.07
2022-12-01T06:04:55.605Z,16.07
2022-12-01T06:07:23.606Z,16.05
2022-12-01T06:09:50.433Z,16.05
2022-12-01T06:12:17.648Z,16.05
2022-12-01T06:14:44.679Z,16.03
2022-12-01T06:17:12.204Z,16.05
2022-12-01T06:19:39.301Z,16.06
2022-12-01T06:22:06.397Z,16.06
2022-12-01T06:24:32.912Z,16.03
2022-12-01T06:27:00.011Z,16.05
2022-12-01T06:29:26.623Z,16.04
2022-12-01T06:31:53.219Z,16.05
2022-12-01T06:34:20.295Z,16.04
2022-12-01T06:36:46.812Z,16.06
2022-12-01T06:39:16.084Z,16.04
2022-12-01T06:41:43.591Z,16.04
2022-12-01T06:44:11.624Z,16.02
2022-12-01T06:46:38.203Z,16.03
2022-12-01T06:49:05.037Z,16.02
2022-12-01T06:51:33.849Z,16.04
2022-12-01T06:54:05.239Z,16.04
2022-12-01T06:56:32.301Z,16.06
2022-12-01T06:58:59.121Z,16.06
2022-12-01T07:01:26.741Z,16.06
2022-12-01T07:03:53.937Z,16.06
2022-12-01T07:06:21.236Z,16.07
2022-12-01T07:08:47.796Z,16.06
2022-12-01T07:11:15.730Z,16.06
2022-12-01T07:13:45.443Z,16.07
2022-12-01T07:16:12.432Z,16.08
2022-12-01T07:18:41.014Z,16.02
2022-12-01T07:21:11.438Z,16.03
2022-12-01T07:23:38.054Z,16.06
2022-12-01T07:26:07.403Z,16.05
2022-12-01T07:28:34.328Z,16.02
2022-12-01T07:31:04.269Z,16.02
2022-12-01T07:33:31.321Z,16.03
2022-12-01T07:35:58.318Z,16.00
2022-12-01T07:38:25.306Z,15.98
2022-12-01T07:40:52.366Z,16.02
2022-12-01T07:43:18.894Z,15.99
2022-12-01T07:45:45.533Z,16.01
2022-12-01T07:48:12.148Z,15.93
2022-12-01T07:50:39.200Z,15.97
2022-12-01T07:53:06.142Z,15.89
2022-12-01T07:55:32.707Z,15.91
2022-12-01T07:58:00.670Z,15.93
2022-12-01T08:00:27.401Z,15.90
2022-12-01T08:02:54.735Z,15.92
2022-12-01T08:05:21.813Z,15.92
2022-12-01T08:07:48.943Z,15.85
2022-12-01T08:10:15.705Z,15.93
2022-12-01T08:12:43.606Z,15.92
2022-12-01T08:15:10.579Z,15.92
2022-12-01T08:17:37.141Z,15.88
2022-12-01T08:20:04.487Z,15.92
2022-12-01T08:22:31.065Z,15.94
2022-12-01T08:24:57.555Z,15.95
2022-12-01T08:27:24.642Z,15.95
2022-12-01T08:29:51.394Z,15.91
2022-12-01T08:32:18.508Z,15.95
2022-12-01T08:34:49.334Z,15.93
2022-12-01T08:37:19.595Z,15.90
2022-12-01T08:39:46.144Z,15.95
2022-12-01T08:42:13.098Z,15.89
2022-12-01T08:44:39.855Z,15.97
2022-12-01T08:47:06.642Z,15.94
2022-12-01T08:49:33.269Z,15.99
2022-12-01T08:51:59.805Z,15.99
2022-12-01T08:54:26.953Z,16.01
2022-12-01T08:56:53.503Z,16.02
2022-12-01T08:59:20.095Z,16.08
2022-12-01T09:01:53.247Z,16.08
2022-12-01T09:04:21.810Z,16.11
2022-12-01T09:06:50.477Z,16.14
2022-12-01T09:09:23.580Z,16.20
2022-12-01T09:11:52.360Z,16.18
2022-12-01T09:14:21.088Z,16.24
2022-12-01T09:16:49.933Z,16.25
2022-12-01T09:19:24.023Z,16.29
2022-12-01T09:21:52.463Z,16.26
2022-12-01T09:24:19.477Z,16.31
2022-12-01T09:26:46.192Z,16.34
2022-12-01T09:29:15.275Z,16.34
2022-12-01T09:31:43.192Z,16.35
2022-12-01T09:34:20.298Z,16.37
2022-12-01T09:36:47.790Z,16.38
2022-12-01T09:39:20.134Z,16.38
2022-12-01T09:41:48.214Z,16.41
2022-12-01T09:44:34.369Z,16.42
2022-12-01T09:47:11.915Z,16.40
2022-12-01T09:50:03.519Z,16.40
2022-12-01T09:52:38.519Z,16.42
2022-12-01T09:55:11.917Z,16.47
2022-12-01T09:57:40.392Z,16.46
2022-12-01T10:00:15.938Z,16.43
2022-12-01T10:03:06.565Z,16.50
2022-12-01T10:06:24.617Z,16.50
2022-12-01T10:08:42.468Z,16.47
2022-12-01T10:11:24.553Z,16.43
2022-12-01T10:13:51.162Z,16.51
2022-12-01T10:16:29.125Z,16.49
2022-12-01T10:19:01.290Z,16.51
2022-12-01T10:21:30.893Z,16.52
2022-12-01T10:24:24.151Z,16.53
2022-12-01T10:27:26.018Z,16.52
2022-12-01T10:30:08.855Z,16.53
2022-12-01T10:32:58.736Z,16.55
2022-12-01T10:35:36.023Z,16.57
2022-12-01T10:38:06.892Z,16.57
2022-12-01T10:40:36.857Z,16.55
2022-12-01T10:43:03.910Z,16.59
2022-12-01T10:45:40.638Z,16.59
2022-12-01T10:48:15.846Z,16.61
2022-12-01T10:50:52.326Z,16.61
2022-12-01T10:53:33.629Z,16.62
2022-12-01T10:56:18.367Z,16.62
2022-12-01T10:58:51.373Z,16.64
2022-12-01T11:01:26.893Z,16.63
2022-12-01T11:04:21.764Z,16.62
2022-12-01T11:06:51.589Z,16.65
2022-12-01T11:09:26.178Z,16.61
2022-12-01T11:12:01.739Z,16.66
2022-12-01T11:14:41.008Z,16.65
2022-12-01T11:17:25.080Z,16.66
2022-12-01T11:19:52.482Z,16.64
2022-12-01T11:22:29.111Z,16.69
2022-12-01T11:25:02.979Z,16.70
2022-12-01T11:27:35.064Z,16.70
2022-12-01T11:30:06.725Z,16.68
2022-12-01T11:32:37.996Z,16.69
2022-12-01T11:35:18.395Z,16.73
2022-12-01T11:38:13.161Z,16.73
2022-12-01T11:40:51.642Z,16.72
2022-12-01T11:43:53.268Z,16.74
2022-12-01T11:46:46.245Z,16.75
2022-12-01T11:49:22.073Z,16.75
2022-12-01T11:51:49.294Z,16.71
2022-12-01T11:54:24.549Z,16.75
2022-12-01T11:57:25.318Z,16.74
2022-12-01T11:59:39.661Z,16.77
2022-12-01T12:02:27.441Z,16.77
2022-12-01T12:05:06.633Z,16.77
2022-12-01T12:07:54.543Z,16.77
2022-12-01T12:10:31.665Z,16.77
2022-12-01T12:13:16.944Z,16.80
2022-12-01T12:16:11.886Z,16.77
2022-12-01T12:19:03.502Z,16.79
2022-12-01T12:22:18.255Z,16.78
2022-12-01T12:25:00.496Z,16.78
2022-12-01T12:28:26.881Z,16.75
2022-12-01T12:31:18.779Z,16.78
2022-12-01T12:34:19.324Z,16.79
2022-12-01T12:36:58.636Z,16.79
2022-12-01T12:40:03.406Z,16.78
2022-12-01T12:42:59.111Z,16.80
2022-12-01T12:45:45.134Z,16.76
2022-12-01T12:48:11.664Z,16.81
2022-12-01T12:51:03.506Z,16.80
2022-12-01T12:53:41.540Z,16.83
2022-12-01T12:56:12.820Z,16.81
2022-12-01T12:58:58.215Z,16.80
2022-12-01T13:02:03.036Z,16.81
2022-12-01T13:04:40.632Z,16.83
2022-12-01T13:07:14.735Z,16.84
2022-12-01T13:09:49.180Z,16.84
2022-12-01T13:12:25.437Z,16.82
2022-12-01T13:15:16.467Z,16.85
2022-12-01T13:17:49.769Z,16.84
2022-12-01T13:20:20.416Z,16.83
2022-12-01T13:22:48.121Z,16.87
2022-12-01T13:25:19.419Z,16.82
2022-12-01T13:27:47.664Z,16.85
2022-12-01T13:30:24.706Z,16.86
2022-12-01T13:33:01.349Z,16.88
2022-12-01T13:35:32.227Z,16.88
2022-12-01T13:38:31.796Z,16.88
2022-12-01T13:41:20.399Z,16.88
2022-12-01T13:44:00.671Z,16.88
2022-12-01T13:46:34.137Z,16.83
2022-12-01T13:49:04.495Z,16.85
2022-12-01T13:52:14.169Z,16.88
2022-12-01T13:55:01.178Z,16.89
2022-12-01T13:57:33.247Z,16.89
2022-12-01T13:59:59.709Z,16.89
2022-12-01T14:02:28.766Z,16.90
2022-12-01T14:04:55.451Z,16.91
2022-12-01T14:07:36.024Z,16.90
2022-12-01T14:10:30.111Z,16.91
2022-12-01T14:13:01.854Z,16.87
2022-12-01T14:15:42.369Z,16.88
2022-12-01T14:18:18.433Z,16.91
2022-12-01T14:20:45.813Z,16.81
2022-12-01T14:23:13.169Z,16.90
2022-12-01T14:25:41.321Z,16.89
2022-12-01T14:28:16.895Z,16.88
2022-12-01T14:30:46.434Z,16.90
2022-12-01T14:33:51.149Z,16.91
2022-12-01T14:36:23.506Z,16.90
2022-12-01T14:39:03.917Z,16.91
2022-12-01T14:41:37.003Z,16.92
2022-12-01T14:44:12.799Z,16.91
2022-12-01T14:46:58.573Z,16.90
2022-12-01T14:49:33.066Z,16.91
2022-12-01T14:52:05.542Z,16.90
2022-12-01T14:54:44.766Z,16.93
2022-12-01T14:57:16.947Z,16.91
2022-12-01T14:59:44.605Z,16.92
2022-12-01T15:02:12.607Z,16.90
2022-12-01T15:05:09.813Z,16.93
2022-12-01T15:07:39.457Z,16.91
2022-12-01T15:10:07.868Z,16.90
2022-12-01T15:12:34.865Z,16.93
2022-12-01T15:15:02.707Z,16.93
2022-12-01T15:17:31.249Z,16.93
2022-12-01T15:19:59.253Z,16.90
2022-12-01T15:22:31.056Z,16.93
2022-12-01T15:25:13.859Z,16.88
2022-12-01T15:27:40.504Z,16.90
2022-12-01T15:30:13.553Z,16.93
2022-12-01T15:32:45.727Z,16.94
2022-12-01T15:35:20.177Z,16.94
2022-12-01T15:37:47.040Z,16.90
2022-12-01T15:41:06.055Z,16.94
2022-12-01T15:43:17.174Z,16.93
2022-12-01T15:45:49.443Z,16.90
2022-12-01T15:48:24.407Z,16.94
2022-12-01T15:51:20.159Z,16.90
2022-12-01T15:54:16.188Z,16.92
2022-12-01T15:56:42.822Z,16.93
2022-12-01T15:59:12.316Z,16.94
2022-12-01T16:01:40.570Z,16.88
2022-12-01T16:04:17.640Z,16.92
2022-12-01T16:06:54.379Z,16.87
2022-12-01T16:09:26.315Z,16.88
2022-12-01T16:12:14.423Z,16.90
2022-12-01T16:15:06.851Z,16.90
2022-12-01T16:17:51.017Z,16.88
2022-12-01T16:20:26.257Z,16.89
2022-12-01T16:22:59.089Z,16.85
2022-12-01T16:25:32.959Z,16.88
2022-12-01T16:27:59.813Z,16.86
2022-12-01T16:30:48.940Z,16.87
2022-12-01T16:33:19.566Z,16.85
2022-12-01T16:35:46.157Z,16.84
2022-12-01T16:38:20.590Z,16.84
2022-12-01T16:40:49.528Z,16.82
2022-12-01T16:43:21.229Z,16.84
2022-12-01T16:45:55.444Z,16.82
2022-12-01T16:48:22.324Z,16.85
2022-12-01T16:50:50.789Z,16.81
2022-12-01T16:53:17.869Z,16.80
2022-12-01T16:55:50.157Z,16.79
2022-12-01T16:58:17.207Z,16.82
2022-12-01T17:00:43.986Z,16.82
2022-12-01T17:03:16.289Z,16.81
2022-12-01T17:05:43.040Z,16.77
2022-12-01T17:08:09.639Z,16.80
2022-12-01T17:10:40.002Z,16.76
2022-12-01T17:13:06.574Z,16.79
2022-12-01T17:15:33.236Z,16.72
2022-12-01T17:18:00.270Z,16.77
2022-12-01T17:20:26.854Z,16.76
2022-12-01T17:22:53.380Z,16.74
2022-12-01T17:25:20.040Z,16.71
2022-12-01T17:27:46.715Z,16.70
2022-12-01T17:30:13.492Z,16.74
2022-12-01T17:32:40.068Z,16.65
2022-12-01T17:35:06.986Z,16.73
2022-12-01T17:37:33.701Z,16.72
2022-12-01T17:40:00.299Z,16.73
2022-12-01T17:42:26.951Z,16.63
2022-12-01T17:44:53.468Z,16.69
2022-12-01T17:47:20.466Z,16.72
2022-12-01T17:49:46.984Z,16.70
2022-12-01T17:52:14.196Z,16.70
2022-12-01T17:54:40.803Z,16.68
2022-12-01T17:57:07.525Z,16.69
2022-12-01T17:59:36.722Z,16.68
2022-12-01T18:02:06.872Z,16.67
2022-12-01T18:04:34.108Z,16.66
2022-12-01T18:07:00.704Z,16.67
2022-12-01T18:09:27.745Z,16.65
2022-12-01T18:11:56.290Z,16.60
2022-12-01T18:14:24.117Z,16.62
2022-12-01T18:16:51.653Z,16.65
2022-12-01T18:19:19.600Z,16.67
2022-12-01T18:21:46.829Z,16.66
2022-12-01T18:24:13.489Z,16.66
2022-12-01T18:26:40.988Z,16.55
2022-12-01T18:29:12.862Z,16.64
2022-12-01T18:31:40.730Z,16.64
2022-12-01T18:34:09.037Z,16.58
2022-12-01T18:36:37.707Z,16.60
2022-12-01T18:39:06.779Z,16.60
2022-12-01T18:41:34.457Z,16.62
2022-12-01T18:44:01.169Z,16.59
2022-12-01T18:46:27.823Z,16.60
2022-12-01T18:49:02.937Z,16.59
2022-12-01T18:51:31.148Z,16.58
2022-12-01T18:53:59.440Z,16.57
2022-12-01T18:56:26.737Z,16.59
2022-12-01T18:58:58.379Z,16.56
2022-12-01T19:01:27.777Z,16.59
2022-12-01T19:03:55.761Z,16.58
2022-12-01T19:06:22.695Z,16.52
2022-12-01T19:08:49.335Z,16.58
2022-12-01T19:11:16.627Z,16.57
2022-12-01T19:13:43.837Z,16.56
2022-12-01T19:16:13.818Z,16.57
2022-12-01T19:18:40.453Z,16.51
2022-12-01T19:21:10.805Z,16.56
2022-12-01T19:23:38.267Z,16.55
2022-12-01T19:26:11.120Z,16.55
2022-12-01T19:28:38.477Z,16.51
2022-12-01T19:31:11.222Z,16.49
2022-12-01T19:33:38.192Z,16.45
2022-12-01T19:36:10.308Z,16.53
2022-12-01T19:38:36.985Z,16.52
2022-12-01T19:41:03.776Z,16.52
2022-12-01T19:43:30.336Z,16.49
2022-12-01T19:45:56.894Z,16.49
2022-12-01T19:48:23.525Z,16.41
2022-12-01T19:50:50.526Z,16.51
2022-12-01T19:53:17.088Z,16.51
2022-12-01T19:55:43.632Z,16.46
2022-12-01T19:58:10.224Z,16.49
2022-12-01T20:00:36.880Z,16.47
2022-12-01T20:03:03.889Z,16.48
2022-12-01T20:05:32.518Z,16.46
2022-12-01T20:07:59.198Z,16.46
2022-12-01T20:10:26.250Z,16.47
2022-12-01T20:12:52.915Z,16.47
2022-12-01T20:15:19.624Z,16.46
2022-12-01T20:17:46.237Z,16.44
2022-12-01T20:20:13.186Z,16.45
2022-12-01T20:22:40.744Z,16.45
2022-12-01T20:25:09.494Z,16.44
2022-12-01T20:27:36.446Z,16.44
2022-12-01T20:30:03.074Z,16.40
2022-12-01T20:32:29.694Z,16.44
2022-12-01T20:34:56.250Z,16.43
2022-12-01T20:37:22.821Z,16.41
2022-12-01T20:39:49.819Z,16.40
2022-12-01T20:42:19.302Z,16.44
2022-12-01T20:44:46.417Z,16.43
2022-12-01T20:47:14.643Z,16.43
2022-12-01T20:49:41.201Z,16.43
2022-12-01T20:52:07.781Z,16.38
2022-12-01T20:54:34.838Z,16.43
2022-12-01T20:57:01.532Z,16.40
2022-12-01T20:59:28.518Z,16.37
2022-12-01T21:01:55.476Z,16.38
2022-12-01T21:04:22.589Z,16.40
2022-12-01T21:06:50.041Z,16.39
2022-12-01T21:09:16.884Z,16.40
2022-12-01T21:12:06.829Z,16.40
2022-12-01T21:14:36.807Z,16.40
2022-12-01T21:17:29.820Z,16.36
2022-12-01T21:20:01.657Z,16.36
2022-12-01T21:22:28.281Z,16.38
2022-12-01T21:25:03.304Z,16.37
2022-12-01T21:27:30.505Z,16.37
2022-12-01T21:29:57.506Z,16.35
2022-12-01T21:32:31.839Z,16.38
2022-12-01T21:35:07.817Z,16.37
2022-12-01T21:37:34.848Z,16.37
2022-12-01T21:40:01.930Z,16.35
2022-12-01T21:42:31.410Z,16.34
2022-12-01T21:44:58.464Z,16.31
2022-12-01T21:47:30.135Z,16.37
2022-12-01T21:49:58.928Z,16.37
2022-12-01T21:52:34.549Z,16.31
2022-12-01T21:55:30.740Z,16.33
2022-12-01T21:57:57.245Z,16.33
2022-12-01T22:00:27.138Z,16.36
2022-12-01T22:03:06.219Z,16.35
2022-12-01T22:05:42.216Z,16.30
2022-12-01T22:08:15.067Z,16.35
2022-12-01T22:10:59.006Z,16.36
2022-12-01T22:13:42.022Z,16.35
2022-12-01T22:16:34.995Z,16.35
2022-12-01T22:19:16.529Z,16.34
2022-12-01T22:21:48.115Z,16.32
2022-12-01T22:24:20.496Z,16.34
2022-12-01T22:26:49.852Z,16.32
2022-12-01T22:29:29.440Z,16.32
2022-12-01T22:32:16.228Z,16.32
2022-12-01T22:34:50.295Z,16.28
2022-12-01T22:37:25.365Z,16.32
2022-12-01T22:39:55.503Z,16.32
2022-12-01T22:42:43.242Z,16.31
2022-12-01T22:45:24.418Z,16.32
2022-12-01T22:47:56.353Z,16.31
2022-12-01T22:50:33.041Z,16.32
2022-12-01T22:53:09.517Z,16.28
2022-12-01T22:55:36.768Z,16.28
2022-12-01T22:58:25.508Z,16.30
2022-12-01T23:00:53.984Z,16.21
2022-12-01T23:03:21.159Z,16.22
2022-12-01T23:05:55.388Z,16.23
2022-12-01T23:08:24.239Z,16.30
2022-12-01T23:10:52.604Z,16.28
2022-12-01T23:13:22.250Z,16.27
2022-12-01T23:15:53.613Z,16.27
2022-12-01T23:18:23.824Z,16.17
2022-12-01T23:20:55.952Z,16.25
2022-12-01T23:23:34.497Z,16.25
2022-12-01T23:26:07.306Z,16.25
2022-12-01T23:28:37.047Z,16.23
2022-12-01T23:31:04.133Z,16.22
2022-12-01T23:33:35.080Z,16.24
2022-12-01T23:36:19.327Z,16.23
2022-12-01T23:38:52.878Z,16.19
2022-12-01T23:41:28.767Z,16.23
2022-12-01T23:43:56.324Z,16.21
2022-12-01T23:46:26.936Z,16.18
2022-12-01T23:48:59.159Z,16.20
2022-12-01T23:51:30.920Z,16.11
2022-12-01T23:54:00.933Z,16.19
2022-12-01T23:56:31.017Z,16.20
2022-12-01T23:59:00.937Z,16.20
